createdAt,value
2022-10-15T00:01:08.051Z,101361.50
2022-10-15T00:03:37.030Z,101359.97
2022-10-15T00:06:09.305Z,101355.69
2022-10-15T00:08:36.716Z,101354.94
2022-10-15T00:11:12.863Z,101354.16
2022-10-15T00:13:40.508Z,101349.69
2022-10-15T00:16:09.590Z,101353.56
2022-10-15T00:18:36.855Z,101349.97
2022-10-15T00:21:07.471Z,101347.50
2022-10-15T00:23:34.911Z,101351.75
2022-10-15T00:26:16.462Z,101349.41
2022-10-15T00:28:44.309Z,101343.88
2022-10-15T00:31:14.122Z,101344.13
2022-10-15T00:33:42.062Z,101347.63
2022-10-15T00:36:18.262Z,101342.25
2022-10-15T00:38:45.673Z,101327.16
2022-10-15T00:41:17.413Z,101330.75
2022-10-15T00:43:56.584Z,101338.38
2022-10-15T00:46:41.295Z,101331.28
2022-10-15T00:49:24.835Z,101327.06
2022-10-15T00:52:06.492Z,101320.72
2022-10-15T00:54:40.650Z,101313.66
2022-10-15T00:57:09.122Z,101314.47
2022-10-15T00:59:42.034Z,101317.34
2022-10-15T01:02:10.990Z,101316.75
2022-10-15T01:04:38.426Z,101312.47
2022-10-15T01:07:06.931Z,101313.56
2022-10-15T01:09:34.663Z,101317.78
2022-10-15T01:12:03.037Z,101310.66
2022-10-15T01:14:36.033Z,101312.53
2022-10-15T01:17:17.330Z,101303.66
2022-10-15T01:20:10.083Z,101298.19
2022-10-15T01:22:43.257Z,101291.91
2022-10-15T01:25:22.438Z,101293.47
2022-10-15T01:27:56.985Z,101298.19
2022-10-15T01:30:26.775Z,101300.72
2022-10-15T01:33:31.322Z,101309.19
2022-10-15T01:36:04.004Z,101313.56
2022-10-15T01:38:57.435Z,101313.66
2022-10-15T01:41:40.806Z,101319.78
2022-10-15T01:44:13.471Z,101319.88
2022-10-15T01:47:19.561Z,101311.56
2022-10-15T01:49:49.694Z,101307.97
2022-10-15T01:52:21.960Z,101297.44
2022-10-15T01:54:52.121Z,101305.41
2022-10-15T01:57:24.548Z,101304.56
2022-10-15T01:59:52.659Z,101303.41
2022-10-15T02:02:21.942Z,101304.28
2022-10-15T02:04:49.254Z,101297.75
2022-10-15T02:07:36.091Z,101288.94
2022-10-15T02:10:14.147Z,101285.94
2022-10-15T02:13:10.717Z,101281.38
2022-10-15T02:16:11.114Z,101279.28
2022-10-15T02:18:46.726Z,101282.34
2022-10-15T02:21:22.771Z,101275.91
2022-10-15T02:23:56.935Z,101273.25
2022-10-15T02:26:26.320Z,101277.63
2022-10-15T02:28:56.893Z,101279.50
2022-10-15T02:31:26.029Z,101274.19
2022-10-15T02:33:57.974Z,101276.00
2022-10-15T02:36:25.257Z,101278.66
2022-10-15T02:38:55.292Z,101275.44
2022-10-15T02:41:22.975Z,101273.34
2022-10-15T02:43:50.106Z,101274.53
2022-10-15T02:46:19.830Z,101273.03
2022-10-15T02:48:46.986Z,101261.06
2022-10-15T02:51:17.794Z,101263.81
2022-10-15T02:53:45.018Z,101261.25
2022-10-15T02:56:12.234Z,101253.56
2022-10-15T02:58:39.489Z,101250.34
2022-10-15T03:01:08.189Z,101257.16
2022-10-15T03:03:35.831Z,101263.34
2022-10-15T03:06:03.311Z,101262.56
2022-10-15T03:08:30.540Z,101262.66
2022-10-15T03:11:01.392Z,101254.19
2022-10-15T03:13:29.357Z,101256.25
2022-10-15T03:15:56.906Z,101260.03
2022-10-15T03:18:24.121Z,101252.84
2022-10-15T03:20:57.313Z,101254.72
2022-10-15T03:23:24.904Z,101253.97
2022-10-15T03:26:02.231Z,101259.25
2022-10-15T03:28:30.042Z,101256.81
2022-10-15T03:30:57.818Z,101255.19
2022-10-15T03:33:25.412Z,101255.63
2022-10-15T03:35:54.533Z,101261.28
2022-10-15T03:38:21.895Z,101256.16
2022-10-15T03:40:50.990Z,101256.25
2022-10-15T03:43:41.874Z,101249.22
2022-10-15T03:46:10.459Z,101250.09
2022-10-15T03:48:41.927Z,101249.31
2022-10-15T03:51:11.463Z,101253.78
2022-10-15T03:53:40.656Z,101254.81
2022-10-15T03:56:07.898Z,101254.38
2022-10-15T03:58:38.390Z,101261.72
2022-10-15T04:01:11.796Z,101274.50
2022-10-15T04:03:39.742Z,101271.84
2022-10-15T04:06:07.211Z,101276.34
2022-10-15T04:08:35.447Z,101269.28
2022-10-15T04:11:14.998Z,101270.03
2022-10-15T04:13:42.261Z,101268.25
2022-10-15T04:16:09.476Z,101261.56
2022-10-15T04:18:36.611Z,101259.94
2022-10-15T04:21:05.012Z,101264.47
2022-10-15T04:23:33.615Z,101251.13
2022-10-15T04:26:25.636Z,101245.00
2022-10-15T04:28:53.298Z,101242.59
2022-10-15T04:31:22.377Z,101239.88
2022-10-15T04:33:50.211Z,101227.47
2022-10-15T04:39:01.350Z,101236.88
2022-10-15T04:41:37.696Z,101235.94
2022-10-15T04:44:08.981Z,101241.31
2022-10-15T04:46:37.810Z,101245.59
2022-10-15T04:49:21.439Z,101246.59
2022-10-15T04:51:48.618Z,101262.50
2022-10-15T04:54:22.838Z,101268.91
2022-10-15T04:57:05.835Z,101282.34
2022-10-15T04:59:33.388Z,101276.25
2022-10-15T05:02:23.518Z,101291.31
2022-10-15T05:04:55.867Z,101282.56
2022-10-15T05:07:23.431Z,101290.75
2022-10-15T05:09:52.191Z,101290.91
2022-10-15T05:12:20.383Z,101289.00
2022-10-15T05:14:48.096Z,101293.50
2022-10-15T05:17:21.586Z,101290.13
2022-10-15T05:19:49.026Z,101286.78
2022-10-15T05:22:20.934Z,101277.81
2022-10-15T05:24:52.607Z,101284.69
2022-10-15T05:27:38.558Z,101282.97
2022-10-15T05:30:06.848Z,101276.88
2022-10-15T05:32:43.792Z,101271.59
2022-10-15T05:35:14.704Z,101276.44
2022-10-15T05:38:02.286Z,101271.19
2022-10-15T05:40:29.487Z,101273.00
2022-10-15T05:43:06.445Z,101278.91
2022-10-15T05:45:33.611Z,101289.41
2022-10-15T05:48:05.946Z,101297.34
2022-10-15T05:50:33.260Z,101305.16
2022-10-15T05:53:02.649Z,101310.44
2022-10-15T05:55:38.415Z,101311.06
2022-10-15T05:58:05.742Z,101310.63
2022-10-15T06:00:33.289Z,101317.47
2022-10-15T06:03:00.413Z,101319.09
2022-10-15T06:05:27.658Z,101321.41
2022-10-15T06:07:56.346Z,101321.50
2022-10-15T06:10:23.799Z,101322.88
2022-10-15T06:12:51.289Z,101323.56
2022-10-15T06:15:19.570Z,101324.41
2022-10-15T06:17:46.743Z,101309.88
2022-10-15T06:20:13.953Z,101307.63
2022-10-15T06:22:41.044Z,101297.28
2022-10-15T06:25:08.828Z,101300.38
2022-10-15T06:27:36.086Z,101305.13
2022-10-15T06:30:04.474Z,101309.16
2022-10-15T06:32:31.611Z,101312.19
2022-10-15T06:34:58.783Z,101319.44
2022-10-15T06:37:26.700Z,101325.53
2022-10-15T06:39:56.228Z,101329.66
2022-10-15T06:42:23.336Z,101323.53
2022-10-15T06:44:53.509Z,101324.50
2022-10-15T06:47:20.814Z,101326.13
2022-10-15T06:49:48.499Z,101328.91
2022-10-15T06:52:15.916Z,101326.50
2022-10-15T06:54:43.071Z,101324.16
2022-10-15T06:57:11.178Z,101338.47
2022-10-15T06:59:41.199Z,101324.41
2022-10-15T07:02:14.075Z,101329.91
2022-10-15T07:04:41.189Z,101339.00
2022-10-15T07:07:08.268Z,101331.00
2022-10-15T07:09:36.615Z,101337.97
2022-10-15T07:12:04.686Z,101335.34
2022-10-15T07:14:31.894Z,101329.47
2022-10-15T07:16:59.927Z,101337.53
2022-10-15T07:19:28.407Z,101333.56
2022-10-15T07:21:55.534Z,101336.16
2022-10-15T07:24:22.666Z,101338.50
2022-10-15T07:26:49.821Z,101337.34
2022-10-15T07:29:16.942Z,101348.84
2022-10-15T07:31:46.841Z,101352.19
2022-10-15T07:34:16.823Z,101356.00
2022-10-15T07:36:44.002Z,101344.72
2022-10-15T07:39:11.161Z,101346.72
2022-10-15T07:41:38.272Z,101358.44
2022-10-15T07:44:05.862Z,101364.09
2022-10-15T07:46:33.033Z,101359.59
2022-10-15T07:49:00.156Z,101368.38
2022-10-15T07:51:27.227Z,101361.81
2022-10-15T07:53:54.374Z,101360.56
2022-10-15T07:56:21.523Z,101356.41
2022-10-15T07:58:51.917Z,101364.78
2022-10-15T08:01:20.945Z,101366.56
2022-10-15T08:03:48.369Z,101369.66
2022-10-15T08:06:15.787Z,101371.00
2022-10-15T08:08:43.354Z,101367.63
2022-10-15T08:11:15.815Z,101374.22
2022-10-15T08:13:43.625Z,101368.66
2022-10-15T08:16:13.352Z,101365.47
2022-10-15T08:18:41.644Z,101364.88
2022-10-15T08:21:10.494Z,101358.78
2022-10-15T08:23:38.251Z,101347.47
2022-10-15T08:26:05.469Z,101346.63
2022-10-15T08:28:34.300Z,101349.63
2022-10-15T08:31:05.469Z,101351.44
2022-10-15T08:33:37.440Z,101361.13
2022-10-15T08:36:06.371Z,101367.22
2022-10-15T08:38:34.443Z,101364.41
2022-10-15T08:41:05.429Z,101368.47
2022-10-15T08:43:38.699Z,101361.72
2022-10-15T08:48:53.778Z,101374.38
2022-10-15T08:51:25.225Z,101370.66
2022-10-15T08:53:57.862Z,101383.78
2022-10-15T08:56:30.670Z,101375.44
2022-10-15T08:59:09.375Z,101383.56
2022-10-15T09:01:58.074Z,101380.06
2022-10-15T09:04:42.203Z,101379.06
2022-10-15T09:07:26.990Z,101376.72
2022-10-15T09:10:09.929Z,101388.34
2022-10-15T09:13:16.243Z,101388.28
2022-10-15T09:16:04.828Z,101384.91
2022-10-15T09:18:35.745Z,101387.63
2022-10-15T09:21:05.748Z,101392.72
2022-10-15T09:23:33.954Z,101386.34
2022-10-15T09:26:13.172Z,101384.78
2022-10-15T09:28:52.350Z,101377.34
2022-10-15T09:31:25.119Z,101385.13
2022-10-15T09:34:07.262Z,101391.38
2022-10-15T09:36:41.312Z,101381.91
2022-10-15T09:39:29.369Z,101387.81
2022-10-15T09:42:27.589Z,101386.44
2022-10-15T09:44:59.295Z,101390.25
2022-10-15T09:47:29.546Z,101385.31
2022-10-15T09:50:07.313Z,101385.41
2022-10-15T09:52:40.309Z,101385.13
2022-10-15T09:55:32.971Z,101379.44
2022-10-15T09:58:16.471Z,101380.00
2022-10-15T10:01:07.684Z,101378.22
2022-10-15T10:03:36.899Z,101379.31
2022-10-15T10:06:10.537Z,101374.88
2022-10-15T10:08:55.685Z,101375.22
2022-10-15T10:11:25.721Z,101378.75
2022-10-15T10:13:58.852Z,101379.13
2022-10-15T10:16:27.077Z,101381.31
2022-10-15T10:19:24.861Z,101390.84
2022-10-15T10:22:12.059Z,101387.28
2022-10-15T10:24:39.339Z,101379.81
2022-10-15T10:27:37.714Z,101382.75
2022-10-15T10:30:07.375Z,101374.31
2022-10-15T10:32:35.198Z,101371.88
2022-10-15T10:35:04.231Z,101373.38
2022-10-15T10:37:42.600Z,101374.56
2022-10-15T10:40:31.278Z,101373.25
2022-10-15T10:43:15.645Z,101385.28
2022-10-15T10:46:03.063Z,101377.25
2022-10-15T10:48:43.327Z,101369.19
2022-10-15T10:51:11.999Z,101366.38
2022-10-15T10:53:57.023Z,101366.75
2022-10-15T10:56:30.251Z,101366.91
2022-10-15T10:59:00.418Z,101362.81
2022-10-15T11:01:29.017Z,101361.56
2022-10-15T11:03:56.405Z,101353.91
2022-10-15T11:06:37.547Z,101344.69
2022-10-15T11:09:37.383Z,101346.13
2022-10-15T11:12:26.041Z,101340.72
2022-10-15T11:15:14.571Z,101336.06
2022-10-15T11:18:02.984Z,101332.25
2022-10-15T11:21:08.320Z,101332.25
2022-10-15T11:24:00.258Z,101330.56
2022-10-15T11:26:59.160Z,101322.28
2022-10-15T11:29:58.875Z,101323.47
2022-10-15T11:33:05.556Z,101318.06
2022-10-15T11:36:09.896Z,101311.75
2022-10-15T11:38:43.275Z,101315.50
2022-10-15T11:41:52.830Z,101305.19
2022-10-15T11:44:54.927Z,101302.63
2022-10-15T11:47:47.028Z,101303.97
2022-10-15T11:50:22.729Z,101309.41
2022-10-15T11:53:01.994Z,101299.78
2022-10-15T11:55:39.543Z,101293.50
2022-10-15T11:58:28.676Z,101292.81
2022-10-15T12:01:01.746Z,101285.31
2022-10-15T12:03:31.540Z,101295.41
2022-10-15T12:06:07.086Z,101296.72
2022-10-15T12:08:39.116Z,101290.66
2022-10-15T12:11:24.783Z,101288.53
2022-10-15T12:14:02.393Z,101287.81
2022-10-15T12:16:51.251Z,101284.94
2022-10-15T12:19:25.329Z,101281.19
2022-10-15T12:21:56.602Z,101284.34
2022-10-15T12:24:44.354Z,101276.94
2022-10-15T12:27:18.562Z,101278.78
2022-10-15T12:29:52.478Z,101275.50
2022-10-15T12:32:27.916Z,101266.44
2022-10-15T12:35:00.585Z,101259.38
2022-10-15T12:37:34.640Z,101264.66
2022-10-15T12:40:05.287Z,101253.28
2022-10-15T12:42:39.347Z,101253.75
2022-10-15T12:45:19.950Z,101258.69
2022-10-15T12:47:56.178Z,101262.13
2022-10-15T12:50:25.712Z,101257.47
2022-10-15T12:52:58.961Z,101258.00
2022-10-15T12:55:34.011Z,101261.78
2022-10-15T12:58:04.815Z,101253.00
2022-10-15T13:00:40.897Z,101255.16
2022-10-15T13:03:15.913Z,101253.19
2022-10-15T13:05:43.470Z,101259.06
2022-10-15T13:08:23.196Z,101254.38
2022-10-15T13:10:59.275Z,101251.75
2022-10-15T13:13:31.086Z,101253.03
2022-10-15T13:16:00.527Z,101250.06
2022-10-15T13:18:30.402Z,101252.72
2022-10-15T13:20:58.360Z,101248.13
2022-10-15T13:23:34.070Z,101242.59
2022-10-15T13:26:13.746Z,101242.97
2022-10-15T13:28:42.373Z,101240.72
2022-10-15T13:31:17.949Z,101240.47
2022-10-15T13:33:49.029Z,101243.47
2022-10-15T13:36:22.971Z,101244.91
2022-10-15T13:39:03.257Z,101248.19
2022-10-15T13:41:34.812Z,101250.50
2022-10-15T13:44:03.037Z,101247.97
2022-10-15T13:46:33.036Z,101254.00
2022-10-15T13:49:02.794Z,101244.19
2022-10-15T13:51:38.238Z,101242.09
2022-10-15T13:54:10.656Z,101238.72
2022-10-15T13:56:46.514Z,101241.25
2022-10-15T13:59:19.339Z,101240.63
2022-10-15T14:01:49.805Z,101235.81
2022-10-15T14:04:21.053Z,101240.88
2022-10-15T14:09:37.790Z,101245.41
2022-10-15T14:12:06.989Z,101242.53
2022-10-15T14:14:43.955Z,101241.69
2022-10-15T14:17:20.897Z,101241.41
2022-10-15T14:20:21.653Z,101234.41
2022-10-15T14:22:42.805Z,101244.75
2022-10-15T14:27:37.897Z,101240.22
2022-10-15T14:30:14.377Z,101237.88
2022-10-15T14:32:47.149Z,101231.16
2022-10-15T14:35:31.198Z,101230.31
2022-10-15T14:38:03.743Z,101234.88
2022-10-15T14:40:30.958Z,101232.69
2022-10-15T14:43:20.439Z,101233.22
2022-10-15T14:45:53.404Z,101235.25
2022-10-15T14:48:24.799Z,101234.59
2022-10-15T14:50:52.406Z,101231.22
2022-10-15T14:53:26.998Z,101235.94
2022-10-15T14:56:00.078Z,101236.81
2022-10-15T14:58:28.558Z,101227.97
2022-10-15T15:00:59.249Z,101227.13
2022-10-15T15:03:43.845Z,101225.25
2022-10-15T15:06:10.952Z,101233.84
2022-10-15T15:08:38.022Z,101230.63
2022-10-15T15:11:10.474Z,101224.22
2022-10-15T15:13:40.755Z,101224.22
2022-10-15T15:16:12.014Z,101230.97
2022-10-15T15:18:39.624Z,101232.34
2022-10-15T15:21:10.777Z,101235.19
2022-10-15T15:23:37.988Z,101240.22
2022-10-15T15:26:05.144Z,101243.22
2022-10-15T15:28:32.282Z,101245.41
2022-10-15T15:31:06.630Z,101250.59
2022-10-15T15:33:34.576Z,101252.41
2022-10-15T15:36:07.522Z,101253.88
2022-10-15T15:41:28.775Z,101254.91
2022-10-15T15:43:55.846Z,101259.38
2022-10-15T15:46:23.049Z,101256.31
2022-10-15T15:48:50.135Z,101254.06
2022-10-15T15:51:21.262Z,101252.41
2022-10-15T15:53:48.616Z,101253.03
2022-10-15T15:56:15.758Z,101255.06
2022-10-15T15:58:42.930Z,101270.00
2022-10-15T16:01:10.321Z,101272.63
2022-10-15T16:03:37.460Z,101276.22
2022-10-15T16:06:05.971Z,101281.25
2022-10-15T16:08:33.996Z,101282.56
2022-10-15T16:11:05.458Z,101284.03
2022-10-15T16:13:33.274Z,101280.41
2022-10-15T16:16:00.380Z,101285.53
2022-10-15T16:18:27.597Z,101272.00
2022-10-15T16:20:55.398Z,101288.75
2022-10-15T16:23:22.573Z,101283.09
2022-10-15T16:25:49.664Z,101302.06
2022-10-15T16:28:16.850Z,101290.91
2022-10-15T16:30:43.998Z,101296.78
2022-10-15T16:33:11.281Z,101293.66
2022-10-15T16:35:38.440Z,101299.50
2022-10-15T16:38:05.790Z,101299.22
2022-10-15T16:40:33.571Z,101305.50
2022-10-15T16:43:00.879Z,101300.88
2022-10-15T16:45:27.986Z,101301.44
2022-10-15T16:47:55.168Z,101313.50
2022-10-15T16:50:22.695Z,101317.75
2022-10-15T16:52:49.839Z,101325.28
2022-10-15T16:55:17.120Z,101319.47
2022-10-15T16:57:44.443Z,101323.16
2022-10-15T17:00:12.266Z,101332.81
2022-10-15T17:02:39.512Z,101332.09
2022-10-15T17:05:07.235Z,101335.91
2022-10-15T17:07:34.303Z,101343.53
2022-10-15T17:10:01.779Z,101341.84
2022-10-15T17:12:29.006Z,101335.91
2022-10-15T17:14:56.179Z,101340.59
2022-10-15T17:17:23.418Z,101342.56
2022-10-15T17:19:50.636Z,101348.50
2022-10-15T17:22:17.765Z,101356.88
2022-10-15T17:24:44.884Z,101351.75
2022-10-15T17:27:12.368Z,101359.81
2022-10-15T17:29:39.647Z,101367.19
2022-10-15T17:32:06.758Z,101363.22
2022-10-15T17:34:34.263Z,101371.41
2022-10-15T17:37:02.058Z,101372.69
2022-10-15T17:39:29.157Z,101380.19
2022-10-15T17:41:56.274Z,101382.44
2022-10-15T17:44:23.478Z,101383.69
2022-10-15T17:46:52.332Z,101376.91
2022-10-15T17:49:25.183Z,101385.25
2022-10-15T17:51:52.428Z,101389.19
2022-10-15T17:54:19.725Z,101394.66
2022-10-15T17:56:48.541Z,101397.19
2022-10-15T17:59:15.729Z,101400.13
2022-10-15T18:02:00.379Z,101399.31
2022-10-15T18:04:29.526Z,101406.06
2022-10-15T18:06:57.038Z,101407.44
2022-10-15T18:09:28.095Z,101406.16
2022-10-15T18:11:56.513Z,101417.88
2022-10-15T18:14:29.310Z,101420.56
2022-10-15T18:16:56.453Z,101429.72
2022-10-15T18:19:25.695Z,101427.44
2022-10-15T18:21:53.197Z,101434.31
2022-10-15T18:24:21.949Z,101436.53
2022-10-15T18:26:50.424Z,101443.56
2022-10-15T18:29:17.691Z,101437.03
2022-10-15T18:31:46.925Z,101436.56
2022-10-15T18:34:14.366Z,101440.75
2022-10-15T18:36:43.333Z,101458.22
2022-10-15T18:39:10.500Z,101456.78
2022-10-15T18:41:38.720Z,101457.16
2022-10-15T18:44:08.315Z,101464.75
2022-10-15T18:46:35.665Z,101463.31
2022-10-15T18:49:02.861Z,101460.03
2022-10-15T18:51:31.298Z,101463.31
2022-10-15T18:54:01.717Z,101461.28
2022-10-15T18:56:29.383Z,101468.00
2022-10-15T18:58:56.466Z,101465.59
2022-10-15T19:01:24.739Z,101466.81
2022-10-15T19:03:53.003Z,101469.75
2022-10-15T19:06:21.938Z,101473.78
2022-10-15T19:08:50.392Z,101483.03
2022-10-15T19:11:18.874Z,101478.31
2022-10-15T19:13:46.075Z,101477.00
2022-10-15T19:16:13.264Z,101487.34
2022-10-15T19:18:40.631Z,101486.13
2022-10-15T19:21:07.799Z,101482.97
2022-10-15T19:23:34.938Z,101489.66
2022-10-15T19:26:06.090Z,101483.84
2022-10-15T19:28:33.383Z,101478.88
2022-10-15T19:31:02.745Z,101486.50
2022-10-15T19:33:34.286Z,101479.72
2022-10-15T19:36:01.561Z,101478.34
2022-10-15T19:38:28.695Z,101481.38
2022-10-15T19:40:55.809Z,101478.09
2022-10-15T19:43:23.749Z,101483.56
2022-10-15T19:45:50.864Z,101496.56
2022-10-15T19:48:19.421Z,101484.16
2022-10-15T19:50:47.409Z,101493.38
2022-10-15T19:53:17.258Z,101490.31
2022-10-15T19:55:55.072Z,101496.16
2022-10-15T19:58:22.821Z,101502.09
2022-10-15T20:00:50.802Z,101507.69
2022-10-15T20:03:18.298Z,101510.56
2022-10-15T20:05:46.415Z,101504.84
2022-10-15T20:08:14.760Z,101516.63
2022-10-15T20:10:44.419Z,101513.09
2022-10-15T20:13:12.471Z,101516.63
2022-10-15T20:15:43.802Z,101518.44
2022-10-15T20:18:11.751Z,101520.72
2022-10-15T20:20:41.122Z,101525.81
2022-10-15T20:23:08.704Z,101523.91
2022-10-15T20:25:39.555Z,101530.97
2022-10-15T20:28:06.698Z,101529.63
2022-10-15T20:30:33.822Z,101532.22
2022-10-15T20:33:00.970Z,101540.22
2022-10-15T20:35:28.131Z,101541.81
2022-10-15T20:37:55.229Z,101543.41
2022-10-15T20:40:22.338Z,101539.53
2022-10-15T20:42:49.447Z,101543.16
2022-10-15T20:45:16.639Z,101548.50
2022-10-15T20:47:48.473Z,101552.88
2022-10-15T20:50:29.893Z,101555.59
2022-10-15T20:52:57.450Z,101555.47
2022-10-15T20:55:25.483Z,101565.34
2022-10-15T20:57:52.761Z,101558.28
2022-10-15T21:00:20.280Z,101566.56
2022-10-15T21:02:47.482Z,101575.28
2022-10-15T21:05:14.698Z,101578.72
2022-10-15T21:07:41.830Z,101573.13
2022-10-15T21:10:09.243Z,101574.00
2022-10-15T21:12:36.371Z,101580.19
2022-10-15T21:15:03.967Z,101585.53
2022-10-15T21:17:31.055Z,101579.44
2022-10-15T21:19:58.199Z,101596.47
2022-10-15T21:22:25.290Z,101593.06
2022-10-15T21:24:52.455Z,101590.25
2022-10-15T21:27:19.557Z,101595.47
2022-10-15T21:29:46.686Z,101596.09
2022-10-15T21:32:13.820Z,101605.00
2022-10-15T21:37:13.197Z,101609.38
2022-10-15T21:39:40.375Z,101608.50
2022-10-15T21:42:07.514Z,101603.41
2022-10-15T21:44:34.607Z,101606.19
2022-10-15T21:47:01.678Z,101612.53
2022-10-15T21:49:28.770Z,101613.13
2022-10-15T21:51:55.923Z,101620.63
2022-10-15T21:54:23.039Z,101623.31
2022-10-15T21:56:50.150Z,101620.53
2022-10-15T21:59:17.290Z,101614.94
2022-10-15T22:01:45.619Z,101617.50
2022-10-15T22:04:12.825Z,101620.09
2022-10-15T22:06:40.504Z,101633.69
2022-10-15T22:09:09.463Z,101632.94
2022-10-15T22:11:39.550Z,101628.56
2022-10-15T22:14:09.635Z,101636.59
2022-10-15T22:16:38.848Z,101636.47
2022-10-15T22:19:08.786Z,101640.00
2022-10-15T22:21:37.971Z,101639.16
2022-10-15T22:24:08.721Z,101633.91
2022-10-15T22:26:42.026Z,101641.94
2022-10-15T22:29:17.236Z,101647.28
2022-10-15T22:31:44.874Z,101650.94
2022-10-15T22:34:12.090Z,101657.13
2022-10-15T22:36:39.881Z,101648.00
2022-10-15T22:39:07.848Z,101658.59
2022-10-15T22:41:39.884Z,101645.84
2022-10-15T22:44:08.297Z,101651.09
2022-10-15T22:46:38.242Z,101662.75
2022-10-15T22:49:07.345Z,101661.81
2022-10-15T22:51:34.739Z,101664.47
2022-10-15T22:54:02.100Z,101671.50
2022-10-15T22:56:29.826Z,101665.56
2022-10-15T22:58:57.995Z,101662.88
2022-10-15T23:01:30.433Z,101664.81
2022-10-15T23:04:01.420Z,101673.59
2022-10-15T23:06:30.082Z,101665.66
2022-10-15T23:08:58.599Z,101661.38
2022-10-15T23:11:29.442Z,101670.50
2022-10-15T23:14:11.782Z,101667.09
2022-10-15T23:16:41.687Z,101669.88
2022-10-15T23:19:16.214Z,101671.31
2022-10-15T23:21:46.497Z,101674.69
2022-10-15T23:24:14.909Z,101672.25
2022-10-15T23:26:42.965Z,101680.50
2022-10-15T23:29:19.005Z,101677.94
2022-10-15T23:31:47.674Z,101678.69
2022-10-15T23:34:18.602Z,101673.34
2022-10-15T23:36:46.014Z,101687.56
2022-10-15T23:39:22.495Z,101676.03
2022-10-15T23:41:49.904Z,101674.31
2022-10-15T23:44:17.479Z,101682.22
2022-10-15T23:46:44.921Z,101680.50
2022-10-15T23:49:12.206Z,101680.28
2022-10-15T23:51:39.599Z,101677.50
2022-10-15T23:54:16.279Z,101685.28
2022-10-15T23:56:44.654Z,101686.03
2022-10-15T23:59:12.196Z,101691.25
